createdAt,value
2023-03-25T00:01:59.736Z,98761.24
2023-03-25T00:04:28.110Z,98758.55
2023-03-25T00:06:56.855Z,98752.99
2023-03-25T00:09:27.344Z,98744.71
2023-03-25T00:11:55.617Z,98737.77
2023-03-25T00:14:25.309Z,98734.42
2023-03-25T00:16:53.881Z,98739.55
2023-03-25T00:19:22.187Z,98741.31
2023-03-25T00:21:50.630Z,98734.17
2023-03-25T00:24:21.217Z,98733.80
2023-03-25T00:26:49.591Z,98733.70
2023-03-25T00:29:18.482Z,98737.24
2023-03-25T00:31:47.734Z,98742.52
2023-03-25T00:34:16.432Z,98745.69
2023-03-25T00:36:49.181Z,98748.09
2023-03-25T00:39:18.512Z,98748.20
2023-03-25T00:41:48.502Z,98743.50
2023-03-25T00:44:18.447Z,98741.48
2023-03-25T00:46:47.490Z,98741.66
2023-03-25T00:49:25.272Z,98735.39
2023-03-25T00:51:56.924Z,98734.45
2023-03-25T00:54:28.506Z,98736.45
2023-03-25T00:56:57.372Z,98738.30
2023-03-25T00:59:26.096Z,98732.05
2023-03-25T01:01:56.539Z,98731.98
2023-03-25T01:04:25.080Z,98727.48
2023-03-25T01:06:55.254Z,98724.33
2023-03-25T01:09:24.528Z,98722.12
2023-03-25T01:11:53.113Z,98723.98
2023-03-25T01:14:22.728Z,98726.04
2023-03-25T01:16:56.505Z,98728.83
2023-03-25T01:19:25.450Z,98731.13
2023-03-25T01:22:03.522Z,98730.79
2023-03-25T01:24:32.395Z,98731.98
2023-03-25T01:27:00.964Z,98733.64
2023-03-25T01:29:30.627Z,98734.00
2023-03-25T01:31:59.183Z,98730.77
2023-03-25T01:34:27.744Z,98729.85
2023-03-25T01:36:56.076Z,98727.95
2023-03-25T01:39:24.708Z,98729.94
2023-03-25T01:41:55.428Z,98726.16
2023-03-25T01:44:24.347Z,98728.53
2023-03-25T01:46:54.431Z,98727.73
2023-03-25T01:49:31.477Z,98729.34
2023-03-25T01:52:07.461Z,98727.33
2023-03-25T01:54:38.945Z,98727.36
2023-03-25T01:57:09.827Z,98727.47
2023-03-25T01:59:38.690Z,98722.56
2023-03-25T02:02:09.288Z,98722.27
2023-03-25T02:04:44.386Z,98719.19
2023-03-25T02:07:12.849Z,98716.64
2023-03-25T02:09:41.455Z,98716.01
2023-03-25T02:12:10.126Z,98717.92
2023-03-25T02:14:39.337Z,98713.30
2023-03-25T02:17:34.564Z,98709.80
2023-03-25T02:20:29.647Z,98707.52
2023-03-25T02:23:17.004Z,98706.70
2023-03-25T02:26:19.828Z,98704.10
2023-03-25T02:29:02.684Z,98696.62
2023-03-25T02:32:12.403Z,98697.58
2023-03-25T02:35:23.837Z,98698.69
2023-03-25T02:38:18.667Z,98696.42
2023-03-25T02:40:58.782Z,98696.08
2023-03-25T02:44:21.128Z,98693.04
2023-03-25T02:46:51.908Z,98690.86
2023-03-25T02:49:24.415Z,98687.17
2023-03-25T02:51:56.303Z,98687.65
2023-03-25T02:54:28.938Z,98686.08
2023-03-25T02:56:57.826Z,98687.80
2023-03-25T02:59:33.975Z,98687.00
2023-03-25T03:02:03.851Z,98689.27
2023-03-25T03:04:32.799Z,98690.25
2023-03-25T03:07:08.324Z,98683.38
2023-03-25T03:09:52.651Z,98683.99
2023-03-25T03:12:37.851Z,98688.84
2023-03-25T03:15:37.476Z,98688.27
2023-03-25T03:18:10.618Z,98689.45
2023-03-25T03:20:51.047Z,98697.98
2023-03-25T03:23:25.342Z,98706.21
2023-03-25T03:26:02.994Z,98711.88
2023-03-25T03:28:41.821Z,98716.54
2023-03-25T03:31:47.406Z,98711.23
2023-03-25T03:34:46.600Z,98696.40
2023-03-25T03:37:17.271Z,98689.60
2023-03-25T03:39:48.175Z,98686.27
2023-03-25T03:42:34.685Z,98688.11
2023-03-25T03:45:07.624Z,98690.77
2023-03-25T03:47:39.597Z,98689.73
2023-03-25T03:50:13.958Z,98688.89
2023-03-25T03:52:46.379Z,98689.20
2023-03-25T03:55:43.821Z,98690.55
2023-03-25T03:58:24.281Z,98694.80
2023-03-25T04:01:03.741Z,98697.89
2023-03-25T04:03:39.088Z,98702.39
2023-03-25T04:06:13.668Z,98698.82
2023-03-25T04:08:52.757Z,98696.54
2023-03-25T04:11:23.516Z,98702.36
2023-03-25T04:13:52.613Z,98698.66
2023-03-25T04:16:20.991Z,98697.68
2023-03-25T04:18:53.900Z,98697.64
2023-03-25T04:21:25.623Z,98697.74
2023-03-25T04:23:54.059Z,98699.89
2023-03-25T04:26:22.356Z,98697.28
2023-03-25T04:28:53.013Z,98697.24
2023-03-25T04:31:21.966Z,98691.98
2023-03-25T04:33:50.801Z,98689.02
2023-03-25T04:36:20.278Z,98683.12
2023-03-25T04:38:48.864Z,98679.64
2023-03-25T04:41:23.379Z,98680.55
2023-03-25T04:43:51.823Z,98673.81
2023-03-25T04:46:20.709Z,98670.21
2023-03-25T04:48:53.953Z,98672.73
2023-03-25T04:51:23.603Z,98671.81
2023-03-25T04:53:56.789Z,98665.57
2023-03-25T04:56:25.122Z,98659.21
2023-03-25T04:58:53.619Z,98658.65
2023-03-25T05:01:30.898Z,98663.52
2023-03-25T05:04:07.149Z,98664.33
2023-03-25T05:06:39.173Z,98664.91
2023-03-25T05:09:09.769Z,98663.60
2023-03-25T05:11:39.858Z,98659.79
2023-03-25T05:14:18.680Z,98658.83
2023-03-25T05:16:48.673Z,98653.50
2023-03-25T05:19:19.071Z,98654.45
2023-03-25T05:21:49.464Z,98655.70
2023-03-25T05:24:17.841Z,98652.95
2023-03-25T05:26:46.533Z,98649.05
2023-03-25T05:29:15.489Z,98648.15
2023-03-25T05:31:45.901Z,98642.35
2023-03-25T05:34:20.892Z,98643.90
2023-03-25T05:36:50.336Z,98640.22
2023-03-25T05:39:19.237Z,98642.05
2023-03-25T05:41:47.514Z,98639.31
2023-03-25T05:44:20.515Z,98636.79
2023-03-25T05:46:49.171Z,98635.40
2023-03-25T05:49:17.666Z,98632.63
2023-03-25T05:51:54.340Z,98628.27
2023-03-25T05:54:24.721Z,98628.18
2023-03-25T05:56:53.038Z,98628.06
2023-03-25T05:59:21.845Z,98626.50
2023-03-25T06:01:50.234Z,98625.41
2023-03-25T06:04:18.711Z,98623.33
2023-03-25T06:06:48.704Z,98624.91
2023-03-25T06:09:18.072Z,98624.17
2023-03-25T06:11:53.655Z,98626.96
2023-03-25T06:14:25.725Z,98625.58
2023-03-25T06:16:57.101Z,98626.88
2023-03-25T06:20:22.299Z,98626.30
2023-03-25T06:22:51.111Z,98622.98
2023-03-25T06:25:24.481Z,98615.20
2023-03-25T06:27:53.448Z,98612.88
2023-03-25T06:30:21.938Z,98610.34
2023-03-25T06:33:10.930Z,98608.35
2023-03-25T06:35:43.248Z,98606.19
2023-03-25T06:38:11.761Z,98607.30
2023-03-25T06:40:59.877Z,98602.90
2023-03-25T06:43:31.116Z,98601.62
2023-03-25T06:46:20.763Z,98596.28
2023-03-25T06:49:10.016Z,98594.55
2023-03-25T06:51:38.604Z,98595.82
2023-03-25T06:54:09.820Z,98597.01
2023-03-25T06:56:38.806Z,98594.73
2023-03-25T06:59:07.306Z,98593.20
2023-03-25T07:01:36.426Z,98591.15
2023-03-25T07:04:05.460Z,98592.33
2023-03-25T07:06:42.928Z,98590.63
2023-03-25T07:09:11.794Z,98590.79
2023-03-25T07:11:40.306Z,98583.23
2023-03-25T07:14:12.450Z,98586.38
2023-03-25T07:16:40.817Z,98584.48
2023-03-25T07:19:10.590Z,98584.66
2023-03-25T07:21:39.817Z,98581.77
2023-03-25T07:24:08.784Z,98577.72
2023-03-25T07:26:37.817Z,98579.16
2023-03-25T07:29:08.405Z,98576.69
2023-03-25T07:31:37.350Z,98576.93
2023-03-25T07:34:08.066Z,98578.55
2023-03-25T07:36:37.427Z,98584.31
2023-03-25T07:39:08.071Z,98571.48
2023-03-25T07:41:37.218Z,98563.95
2023-03-25T07:44:26.557Z,98564.14
2023-03-25T07:47:01.305Z,98563.30
2023-03-25T07:49:30.123Z,98557.92
2023-03-25T07:51:59.209Z,98555.84
2023-03-25T07:54:28.680Z,98554.36
2023-03-25T07:56:57.806Z,98553.83
2023-03-25T07:59:29.716Z,98552.91
2023-03-25T08:01:58.374Z,98548.79
2023-03-25T08:04:26.888Z,98537.42
2023-03-25T08:06:57.699Z,98530.90
2023-03-25T08:09:28.230Z,98526.58
2023-03-25T08:11:57.104Z,98521.60
2023-03-25T08:14:25.737Z,98526.71
2023-03-25T08:16:55.163Z,98523.45
2023-03-25T08:19:23.826Z,98519.12
2023-03-25T08:21:58.010Z,98514.73
2023-03-25T08:24:27.463Z,98509.02
2023-03-25T08:27:01.590Z,98509.83
2023-03-25T08:29:47.386Z,98507.22
2023-03-25T08:32:15.683Z,98509.92
2023-03-25T08:34:44.230Z,98504.18
2023-03-25T08:37:13.996Z,98500.23
2023-03-25T08:39:45.328Z,98494.76
2023-03-25T08:42:15.663Z,98494.33
2023-03-25T08:44:44.357Z,98492.52
2023-03-25T08:47:13.163Z,98492.55
2023-03-25T08:49:41.677Z,98495.66
2023-03-25T08:52:11.037Z,98497.40
2023-03-25T08:54:40.847Z,98493.48
2023-03-25T08:57:10.455Z,98495.44
2023-03-25T08:59:39.710Z,98495.06
2023-03-25T09:02:09.909Z,98497.21
2023-03-25T09:04:41.043Z,98496.48
2023-03-25T09:07:12.553Z,98492.52
2023-03-25T09:09:41.772Z,98495.91
2023-03-25T09:12:11.996Z,98502.39
2023-03-25T09:14:41.269Z,98498.88
2023-03-25T09:17:11.126Z,98497.52
2023-03-25T09:19:41.398Z,98496.77
2023-03-25T09:22:10.517Z,98494.77
2023-03-25T09:24:39.195Z,98492.30
2023-03-25T09:27:07.909Z,98480.52
2023-03-25T09:29:36.762Z,98472.62
2023-03-25T09:32:18.942Z,98471.98
2023-03-25T09:34:48.705Z,98472.09
2023-03-25T09:37:17.212Z,98473.73
2023-03-25T09:39:46.743Z,98476.73
2023-03-25T09:42:34.632Z,98479.88
2023-03-25T09:45:13.512Z,98484.86
2023-03-25T09:47:53.321Z,98478.64
2023-03-25T09:50:21.717Z,98472.45
2023-03-25T09:53:08.576Z,98466.01
2023-03-25T09:55:40.916Z,98466.64
2023-03-25T09:58:22.559Z,98461.15
2023-03-25T10:01:17.690Z,98463.27
2023-03-25T10:04:29.173Z,98455.21
2023-03-25T10:07:20.427Z,98450.10
2023-03-25T10:10:07.541Z,98450.38
2023-03-25T10:12:44.238Z,98442.98
2023-03-25T10:15:29.159Z,98441.73
2023-03-25T10:18:42.422Z,98434.77
2023-03-25T10:21:36.103Z,98435.10
2023-03-25T10:24:13.826Z,98439.64
2023-03-25T10:27:08.529Z,98440.52
2023-03-25T10:30:18.841Z,98437.23
2023-03-25T10:33:19.039Z,98435.13
2023-03-25T10:35:49.005Z,98432.31
2023-03-25T10:38:21.760Z,98427.13
2023-03-25T10:40:53.388Z,98427.77
2023-03-25T10:43:37.028Z,98427.61
2023-03-25T10:46:24.567Z,98421.30
2023-03-25T10:48:58.469Z,98416.66
2023-03-25T10:51:32.661Z,98408.59
2023-03-25T10:54:05.724Z,98402.83
2023-03-25T10:56:39.705Z,98400.71
2023-03-25T10:59:18.707Z,98401.79
2023-03-25T11:01:47.364Z,98398.30
2023-03-25T11:04:19.686Z,98391.44
2023-03-25T11:06:53.005Z,98387.14
2023-03-25T11:09:30.853Z,98388.80
2023-03-25T11:12:00.163Z,98382.11
2023-03-25T11:14:29.822Z,98380.59
2023-03-25T11:17:06.279Z,98379.77
2023-03-25T11:19:42.352Z,98375.33
2023-03-25T11:22:25.741Z,98375.05
2023-03-25T11:25:03.579Z,98375.75
2023-03-25T11:27:32.272Z,98373.50
2023-03-25T11:30:03.205Z,98373.64
2023-03-25T11:32:38.236Z,98372.61
2023-03-25T11:35:17.909Z,98374.67
2023-03-25T11:37:49.195Z,98376.18
2023-03-25T11:40:18.308Z,98379.24
2023-03-25T11:42:52.588Z,98378.91
2023-03-25T11:45:46.471Z,98375.34
2023-03-25T11:48:21.944Z,98378.99
2023-03-25T11:50:55.976Z,98378.97
2023-03-25T11:53:27.779Z,98382.34
2023-03-25T11:56:05.140Z,98382.73
2023-03-25T11:58:34.652Z,98384.00
2023-03-25T12:01:21.505Z,98377.13
2023-03-25T12:03:50.469Z,98378.26
2023-03-25T12:06:23.910Z,98375.14
2023-03-25T12:08:59.741Z,98377.09
2023-03-25T12:12:16.890Z,98375.98
2023-03-25T12:14:49.146Z,98372.52
2023-03-25T12:17:55.475Z,98362.44
2023-03-25T12:20:43.136Z,98360.39
2023-03-25T12:23:27.181Z,98368.48
2023-03-25T12:26:06.856Z,98365.70
2023-03-25T12:29:22.783Z,98366.20
2023-03-25T12:32:32.954Z,98362.56
2023-03-25T12:35:08.796Z,98358.23
2023-03-25T12:37:48.330Z,98356.66
2023-03-25T12:40:41.953Z,98356.21
2023-03-25T12:43:12.130Z,98351.80
2023-03-25T12:45:54.689Z,98348.12
2023-03-25T12:48:47.092Z,98345.17
2023-03-25T12:51:43.367Z,98343.77
2023-03-25T12:54:18.190Z,98340.52
2023-03-25T12:57:20.641Z,98341.66
2023-03-25T13:00:01.424Z,98340.34
2023-03-25T13:02:49.921Z,98340.45
2023-03-25T13:05:33.321Z,98337.23
2023-03-25T13:08:14.720Z,98337.63
2023-03-25T13:10:43.914Z,98332.11
2023-03-25T13:13:24.611Z,98327.37
2023-03-25T13:16:17.982Z,98319.11
2023-03-25T13:19:02.604Z,98319.36
2023-03-25T13:21:52.848Z,98320.44
2023-03-25T13:24:36.181Z,98321.09
2023-03-25T13:27:04.869Z,98316.88
2023-03-25T13:29:54.401Z,98309.95
2023-03-25T13:32:35.290Z,98304.96
2023-03-25T13:35:35.001Z,98308.20
2023-03-25T13:38:07.424Z,98311.33
2023-03-25T13:40:42.989Z,98304.23
2023-03-25T13:43:31.119Z,98307.04
2023-03-25T13:46:05.228Z,98302.75
2023-03-25T13:48:53.127Z,98299.67
2023-03-25T13:51:21.908Z,98296.67
2023-03-25T13:54:12.758Z,98293.31
2023-03-25T13:57:00.444Z,98284.83
2023-03-25T13:59:33.149Z,98284.18
2023-03-25T14:02:24.976Z,98279.51
2023-03-25T14:05:17.140Z,98274.83
2023-03-25T14:08:01.692Z,98270.82
2023-03-25T14:10:58.151Z,98267.83
2023-03-25T14:13:29.672Z,98260.94
2023-03-25T14:16:07.522Z,98253.73
2023-03-25T14:19:03.552Z,98254.86
2023-03-25T14:21:41.771Z,98250.50
2023-03-25T14:24:29.875Z,98251.23
2023-03-25T14:27:03.053Z,98243.70
2023-03-25T14:30:03.001Z,98245.35
2023-03-25T14:32:41.605Z,98246.65
2023-03-25T14:35:32.084Z,98242.25
2023-03-25T14:38:09.689Z,98236.85
2023-03-25T14:40:42.344Z,98233.77
2023-03-25T14:43:25.534Z,98231.59
2023-03-25T14:45:59.578Z,98228.52
2023-03-25T14:48:38.007Z,98229.08
2023-03-25T14:51:15.753Z,98225.64
2023-03-25T14:54:05.138Z,98226.02
2023-03-25T14:56:35.897Z,98223.22
2023-03-25T14:59:14.704Z,98224.20
2023-03-25T15:01:44.364Z,98223.03
2023-03-25T15:04:18.697Z,98226.63
2023-03-25T15:06:52.248Z,98224.10
2023-03-25T15:09:21.336Z,98223.80
2023-03-25T15:12:01.521Z,98222.38
2023-03-25T15:14:32.964Z,98218.27
2023-03-25T15:17:11.192Z,98215.02
2023-03-25T15:20:09.910Z,98211.83
2023-03-25T15:22:38.866Z,98206.44
2023-03-25T15:25:25.677Z,98205.52
2023-03-25T15:28:19.740Z,98203.25
2023-03-25T15:31:13.520Z,98194.84
2023-03-25T15:34:39.701Z,98189.89
2023-03-25T15:37:45.134Z,98182.58
2023-03-25T15:40:36.741Z,98177.55
2023-03-25T15:43:34.521Z,98171.86
2023-03-25T15:46:15.009Z,98171.48
2023-03-25T15:49:08.983Z,98175.08
2023-03-25T15:52:14.113Z,98177.82
2023-03-25T15:54:54.502Z,98174.66
2023-03-25T15:57:46.230Z,98173.59
2023-03-25T16:00:22.633Z,98174.66
2023-03-25T16:03:04.261Z,98174.32
2023-03-25T16:05:38.844Z,98176.66
2023-03-25T16:08:11.864Z,98173.92
2023-03-25T16:10:41.720Z,98173.17
2023-03-25T16:13:24.158Z,98169.98
2023-03-25T16:15:57.529Z,98172.67
2023-03-25T16:18:26.414Z,98179.09
2023-03-25T16:20:59.952Z,98180.45
2023-03-25T16:23:28.333Z,98182.14
2023-03-25T16:25:56.992Z,98191.46
2023-03-25T16:28:32.141Z,98190.90
2023-03-25T16:31:03.082Z,98189.91
2023-03-25T16:33:33.377Z,98194.34
2023-03-25T16:36:09.941Z,98190.23
2023-03-25T16:38:38.252Z,98193.92
2023-03-25T16:41:13.991Z,98188.05
2023-03-25T16:43:42.665Z,98183.80
2023-03-25T16:46:12.319Z,98184.41
2023-03-25T16:48:51.363Z,98184.98
2023-03-25T16:51:23.923Z,98194.91
2023-03-25T16:53:53.958Z,98200.56
2023-03-25T16:56:33.316Z,98193.30
2023-03-25T16:59:06.945Z,98184.70
2023-03-25T17:01:45.176Z,98182.16
2023-03-25T17:04:19.085Z,98179.67
2023-03-25T17:06:58.281Z,98179.81
2023-03-25T17:09:34.576Z,98177.08
2023-03-25T17:12:06.782Z,98177.84
2023-03-25T17:14:40.581Z,98179.71
2023-03-25T17:17:32.677Z,98178.30
2023-03-25T17:20:06.964Z,98178.86
2023-03-25T17:22:39.494Z,98183.64
2023-03-25T17:25:28.563Z,98186.52
2023-03-25T17:28:01.108Z,98191.84
2023-03-25T17:30:43.228Z,98197.42
2023-03-25T17:33:19.738Z,98191.89
2023-03-25T17:35:54.051Z,98189.63
2023-03-25T17:38:36.646Z,98182.80
2023-03-25T17:41:07.884Z,98170.95
2023-03-25T17:43:41.599Z,98163.20
2023-03-25T17:46:25.959Z,98155.70
2023-03-25T17:48:59.419Z,98155.71
2023-03-25T17:51:29.882Z,98152.94
2023-03-25T17:54:01.702Z,98148.42
2023-03-25T17:56:31.049Z,98142.56
2023-03-25T17:59:19.767Z,98137.35
2023-03-25T18:01:50.810Z,98139.99
2023-03-25T18:04:20.952Z,98142.45
2023-03-25T18:06:49.812Z,98140.45
2023-03-25T18:09:20.610Z,98140.15
2023-03-25T18:11:53.190Z,98135.07
2023-03-25T18:14:25.474Z,98133.44
2023-03-25T18:16:54.580Z,98128.27
2023-03-25T18:19:25.801Z,98131.72
2023-03-25T18:21:55.251Z,98134.34
2023-03-25T18:24:25.073Z,98137.14
2023-03-25T18:26:53.862Z,98136.71
2023-03-25T18:29:25.290Z,98134.59
2023-03-25T18:31:54.849Z,98138.30
2023-03-25T18:36:42.170Z,98143.38
2023-03-25T18:39:14.412Z,98139.33
2023-03-25T18:41:43.999Z,98135.98
2023-03-25T18:44:12.733Z,98138.55
2023-03-25T18:46:41.742Z,98137.08
2023-03-25T18:49:19.497Z,98141.88
2023-03-25T18:51:48.573Z,98143.15
2023-03-25T18:54:17.594Z,98144.21
2023-03-25T18:56:46.718Z,98148.34
2023-03-25T18:59:21.379Z,98151.52
2023-03-25T19:01:51.101Z,98151.02
2023-03-25T19:04:19.954Z,98151.98
2023-03-25T19:06:53.896Z,98149.52
2023-03-25T19:09:24.034Z,98148.08
2023-03-25T19:11:52.570Z,98145.34
2023-03-25T19:14:21.818Z,98142.99
2023-03-25T19:17:01.297Z,98134.27
2023-03-25T19:19:32.074Z,98119.83
2023-03-25T19:22:01.322Z,98117.01
2023-03-25T19:24:30.444Z,98117.02
2023-03-25T19:26:59.492Z,98114.05
2023-03-25T19:29:28.285Z,98104.95
2023-03-25T19:31:57.106Z,98101.80
2023-03-25T19:34:25.945Z,98097.53
2023-03-25T19:37:02.928Z,98092.65
2023-03-25T19:39:31.823Z,98090.38
2023-03-25T19:42:00.934Z,98096.27
2023-03-25T19:44:30.295Z,98101.93
2023-03-25T19:47:01.216Z,98098.23
2023-03-25T19:49:39.414Z,98099.44
2023-03-25T19:52:08.911Z,98112.33
2023-03-25T19:54:40.965Z,98114.02
2023-03-25T19:57:09.907Z,98111.20
2023-03-25T19:59:45.364Z,98110.38
2023-03-25T20:02:15.849Z,98105.73
2023-03-25T20:04:44.762Z,98096.94
2023-03-25T20:07:20.598Z,98082.16
2023-03-25T20:09:49.046Z,98084.95
2023-03-25T20:12:17.478Z,98075.71
2023-03-25T20:14:46.322Z,98070.62
2023-03-25T20:17:14.990Z,98071.02
2023-03-25T20:19:43.725Z,98068.42
2023-03-25T20:22:24.086Z,98070.48
2023-03-25T20:24:55.730Z,98070.79
2023-03-25T20:27:31.606Z,98067.69
2023-03-25T20:30:01.105Z,98065.64
2023-03-25T20:32:39.848Z,98062.73
2023-03-25T20:35:11.619Z,98055.25
2023-03-25T20:37:41.605Z,98059.05
2023-03-25T20:40:14.589Z,98062.60
2023-03-25T20:42:44.243Z,98062.71
2023-03-25T20:45:17.458Z,98064.02
2023-03-25T20:47:46.459Z,98062.59
2023-03-25T20:50:16.695Z,98059.52
2023-03-25T20:52:46.186Z,98054.45
2023-03-25T20:55:14.849Z,98049.19
2023-03-25T20:57:44.685Z,98042.35
2023-03-25T21:00:14.632Z,98036.23
2023-03-25T21:02:45.093Z,98030.11
2023-03-25T21:05:13.492Z,98027.37
2023-03-25T21:07:43.003Z,98019.58
2023-03-25T21:10:11.694Z,98014.13
2023-03-25T21:12:45.078Z,98015.99
2023-03-25T21:15:16.743Z,98023.73
2023-03-25T21:17:45.162Z,98026.98
2023-03-25T21:20:16.577Z,98025.98
2023-03-25T21:22:44.947Z,98020.23
2023-03-25T21:25:15.128Z,98013.77
2023-03-25T21:27:45.424Z,98015.80
2023-03-25T21:30:15.227Z,98013.58
2023-03-25T21:32:45.002Z,98014.25
2023-03-25T21:35:14.058Z,98011.90
2023-03-25T21:37:42.473Z,98007.99
2023-03-25T21:40:11.788Z,98004.00
2023-03-25T21:42:41.629Z,98006.58
2023-03-25T21:45:11.911Z,97997.05
2023-03-25T21:47:41.613Z,97999.05
2023-03-25T21:50:11.744Z,97994.38
2023-03-25T21:52:47.223Z,97993.89
2023-03-25T21:55:15.910Z,97992.00
2023-03-25T21:57:45.362Z,97987.11
2023-03-25T22:00:16.600Z,97977.94
2023-03-25T22:02:47.903Z,97977.98
2023-03-25T22:05:16.704Z,97972.77
2023-03-25T22:07:45.571Z,97962.61
2023-03-25T22:10:14.380Z,97966.69
2023-03-25T22:12:42.805Z,97972.33
2023-03-25T22:15:13.952Z,97975.16
2023-03-25T22:17:44.429Z,97982.54
2023-03-25T22:20:13.664Z,97983.65
2023-03-25T22:22:43.307Z,97982.20
2023-03-25T22:25:11.514Z,97981.98
2023-03-25T22:27:40.000Z,97981.35
2023-03-25T22:30:09.033Z,97980.27
2023-03-25T22:32:37.675Z,97981.99
2023-03-25T22:35:06.757Z,97978.58
2023-03-25T22:37:37.416Z,97978.23
2023-03-25T22:40:08.741Z,97974.64
2023-03-25T22:42:39.529Z,97978.54
2023-03-25T22:45:08.432Z,97977.52
2023-03-25T22:47:38.641Z,97981.28
2023-03-25T22:50:07.894Z,97979.91
2023-03-25T22:52:41.577Z,97984.04
2023-03-25T22:55:10.240Z,97981.67
2023-03-25T22:57:38.569Z,97978.64
2023-03-25T23:00:12.990Z,97979.21
2023-03-25T23:02:41.764Z,97977.07
2023-03-25T23:05:11.352Z,97981.11
2023-03-25T23:07:39.701Z,97980.67
2023-03-25T23:10:09.546Z,97980.86
2023-03-25T23:12:38.055Z,97974.45
2023-03-25T23:15:08.209Z,97971.77
2023-03-25T23:17:37.184Z,97973.90
2023-03-25T23:20:08.654Z,97974.29
2023-03-25T23:22:43.061Z,97970.89
2023-03-25T23:25:11.791Z,97966.83
2023-03-25T23:27:40.145Z,97971.38
2023-03-25T23:30:09.145Z,97974.34
2023-03-25T23:32:37.508Z,97970.36
2023-03-25T23:35:06.796Z,97969.88
2023-03-25T23:37:35.731Z,97968.99
2023-03-25T23:40:07.434Z,97967.33
2023-03-25T23:42:36.216Z,97966.73
2023-03-25T23:45:05.219Z,97965.06
2023-03-25T23:47:33.557Z,97966.58
2023-03-25T23:50:02.179Z,97963.36
2023-03-25T23:52:33.534Z,97965.50
2023-03-25T23:55:02.554Z,97965.38
2023-03-25T23:57:30.994Z,97962.05
2023-03-25T23:59:59.209Z,97960.79
